createdAt,value
2023-01-13T00:00:38.427Z,8.43
2023-01-13T00:03:06.758Z,8.22
2023-01-13T00:05:35.379Z,8.30
2023-01-13T00:08:05.020Z,8.47
2023-01-13T00:10:34.984Z,8.11
2023-01-13T00:13:05.017Z,8.20
2023-01-13T00:15:33.711Z,8.18
2023-01-13T00:18:02.060Z,8.33
2023-01-13T00:20:30.379Z,8.77
2023-01-13T00:23:00.226Z,8.79
2023-01-13T00:25:28.436Z,8.75
2023-01-13T00:27:58.234Z,8.91
2023-01-13T00:30:26.450Z,8.82
2023-01-13T00:32:54.784Z,9.01
2023-01-13T00:35:23.168Z,9.01
2023-01-13T00:37:51.384Z,9.17
2023-01-13T00:40:19.864Z,9.15
2023-01-13T00:43:07.716Z,9.20
2023-01-13T00:45:37.389Z,9.12
2023-01-13T00:48:05.707Z,8.76
2023-01-13T00:50:34.312Z,9.14
2023-01-13T00:53:02.978Z,8.95
2023-01-13T00:55:32.604Z,8.68
2023-01-13T00:58:03.738Z,8.60
2023-01-13T01:00:32.457Z,8.24
2023-01-13T01:03:02.393Z,8.03
2023-01-13T01:05:30.612Z,7.67
2023-01-13T01:07:58.875Z,7.17
2023-01-13T01:10:27.401Z,6.88
2023-01-13T01:12:55.641Z,6.69
2023-01-13T01:15:43.531Z,6.61
2023-01-13T01:18:13.256Z,6.84
2023-01-13T01:20:41.497Z,6.62
2023-01-13T01:23:09.741Z,6.95
2023-01-13T01:25:38.086Z,7.10
2023-01-13T01:28:06.394Z,6.71
2023-01-13T01:30:34.708Z,7.16
2023-01-13T01:33:05.358Z,7.35
2023-01-13T01:35:34.978Z,7.13
2023-01-13T01:38:03.180Z,7.44
2023-01-13T01:40:31.502Z,7.99
2023-01-13T01:43:13.503Z,7.83
2023-01-13T01:45:41.793Z,7.71
2023-01-13T01:48:13.755Z,8.14
2023-01-13T01:50:43.506Z,7.74
2023-01-13T01:53:14.455Z,7.56
2023-01-13T01:55:43.688Z,7.44
2023-01-13T01:58:16.805Z,7.43
2023-01-13T02:00:45.359Z,7.61
2023-01-13T02:03:14.342Z,7.65
2023-01-13T02:05:44.073Z,7.90
2023-01-13T02:08:15.099Z,7.95
2023-01-13T02:10:47.026Z,7.90
2023-01-13T02:13:15.676Z,7.97
2023-01-13T02:15:52.372Z,8.02
2023-01-13T02:18:32.974Z,7.96
2023-01-13T02:21:30.478Z,7.73
2023-01-13T02:24:41.573Z,7.91
2023-01-13T02:27:54.941Z,7.99
2023-01-13T02:31:15.751Z,7.44
2023-01-13T02:33:55.065Z,7.11
2023-01-13T02:36:32.838Z,6.98
2023-01-13T02:39:09.749Z,6.78
2023-01-13T02:42:02.960Z,6.74
2023-01-13T02:44:37.380Z,6.59
2023-01-13T02:47:11.603Z,6.79
2023-01-13T02:49:43.832Z,7.01
2023-01-13T02:52:15.529Z,7.20
2023-01-13T02:54:48.081Z,6.87
2023-01-13T02:57:19.719Z,6.90
2023-01-13T02:59:49.330Z,6.97
2023-01-13T03:02:22.717Z,6.97
2023-01-13T03:04:54.404Z,6.78
2023-01-13T03:07:53.506Z,6.92
2023-01-13T03:10:35.911Z,6.60
2023-01-13T03:13:16.225Z,6.55
2023-01-13T03:15:55.296Z,6.81
2023-01-13T03:18:36.031Z,6.76
2023-01-13T03:21:11.132Z,6.85
2023-01-13T03:23:49.138Z,6.73
2023-01-13T03:26:24.169Z,7.04
2023-01-13T03:28:59.609Z,7.03
2023-01-13T03:31:32.815Z,7.32
2023-01-13T03:34:08.743Z,6.90
2023-01-13T03:36:40.904Z,7.63
2023-01-13T03:39:13.785Z,7.74
2023-01-13T03:41:48.439Z,7.87
2023-01-13T03:44:23.238Z,7.84
2023-01-13T03:47:00.755Z,7.52
2023-01-13T03:49:36.157Z,7.39
2023-01-13T03:52:09.266Z,7.23
2023-01-13T03:54:45.130Z,7.44
2023-01-13T03:57:17.061Z,7.51
2023-01-13T03:59:49.932Z,7.24
2023-01-13T04:02:25.849Z,7.71
2023-01-13T04:04:59.906Z,7.47
2023-01-13T04:07:38.863Z,7.34
2023-01-13T04:10:10.307Z,7.73
2023-01-13T04:13:05.347Z,7.51
2023-01-13T04:15:37.998Z,7.69
2023-01-13T04:18:15.576Z,7.56
2023-01-13T04:20:46.707Z,8.18
2023-01-13T04:23:15.250Z,7.97
2023-01-13T04:25:44.915Z,8.06
2023-01-13T04:28:13.735Z,8.23
2023-01-13T04:30:42.766Z,7.86
2023-01-13T04:33:12.260Z,7.73
2023-01-13T04:35:40.685Z,7.78
2023-01-13T04:38:12.819Z,7.07
2023-01-13T04:40:41.439Z,7.36
2023-01-13T04:43:10.219Z,7.86
2023-01-13T04:45:38.613Z,7.16
2023-01-13T04:48:07.440Z,7.26
2023-01-13T04:50:35.786Z,7.26
2023-01-13T04:53:04.172Z,6.96
2023-01-13T04:55:33.968Z,6.91
2023-01-13T04:58:05.881Z,7.84
2023-01-13T05:00:34.564Z,7.48
2023-01-13T05:03:03.374Z,7.61
2023-01-13T05:05:32.273Z,7.72
2023-01-13T05:08:00.678Z,7.57
2023-01-13T05:10:29.384Z,7.65
2023-01-13T05:13:16.448Z,7.32
2023-01-13T05:16:04.632Z,7.30
2023-01-13T05:18:34.190Z,7.08
2023-01-13T05:21:02.465Z,6.94
2023-01-13T05:23:47.989Z,7.03
2023-01-13T05:26:16.271Z,7.07
2023-01-13T05:28:45.986Z,6.67
2023-01-13T05:31:15.109Z,6.48
2023-01-13T05:33:43.422Z,6.80
2023-01-13T05:36:11.700Z,6.67
2023-01-13T05:38:40.069Z,7.01
2023-01-13T05:41:26.618Z,7.15
2023-01-13T05:43:56.379Z,7.15
2023-01-13T05:46:24.885Z,6.78
2023-01-13T05:48:53.197Z,7.01
2023-01-13T05:51:26.367Z,7.14
2023-01-13T05:53:57.524Z,7.12
2023-01-13T05:56:25.839Z,7.60
2023-01-13T05:58:55.454Z,7.88
2023-01-13T06:01:23.852Z,7.72
2023-01-13T06:03:52.244Z,8.01
2023-01-13T06:06:20.576Z,8.09
2023-01-13T06:08:48.902Z,7.93
2023-01-13T06:11:17.247Z,7.50
2023-01-13T06:13:45.586Z,7.88
2023-01-13T06:16:15.367Z,8.11
2023-01-13T06:18:43.657Z,7.80
2023-01-13T06:21:11.882Z,7.57
2023-01-13T06:23:40.123Z,7.47
2023-01-13T06:26:13.746Z,7.09
2023-01-13T06:28:42.050Z,7.04
2023-01-13T06:31:11.792Z,6.93
2023-01-13T06:33:45.943Z,7.57
2023-01-13T06:36:18.352Z,8.06
2023-01-13T06:38:51.320Z,8.43
2023-01-13T06:41:42.075Z,8.27
2023-01-13T06:44:09.405Z,8.34
2023-01-13T06:46:37.988Z,8.94
2023-01-13T06:49:07.970Z,9.72
2023-01-13T06:51:36.377Z,9.76
2023-01-13T06:54:05.020Z,9.75
2023-01-13T06:56:33.391Z,10.50
2023-01-13T06:59:01.575Z,10.75
2023-01-13T07:01:29.812Z,11.37
2023-01-13T07:03:58.356Z,11.78
2023-01-13T07:06:33.223Z,12.53
2023-01-13T07:09:01.657Z,12.89
2023-01-13T07:11:29.953Z,13.29
2023-01-13T07:14:15.510Z,13.57
2023-01-13T07:16:45.243Z,14.08
2023-01-13T07:19:13.593Z,14.11
2023-01-13T07:21:44.076Z,14.09
2023-01-13T07:24:12.385Z,13.94
2023-01-13T07:26:42.856Z,14.17
2023-01-13T07:29:11.140Z,14.89
2023-01-13T07:31:41.807Z,15.55
2023-01-13T07:34:10.256Z,15.52
2023-01-13T07:36:39.501Z,15.69
2023-01-13T07:39:09.407Z,15.71
2023-01-13T07:41:54.874Z,15.09
2023-01-13T07:44:26.134Z,14.69
2023-01-13T07:46:54.378Z,15.05
2023-01-13T07:49:25.392Z,15.64
2023-01-13T07:51:53.698Z,16.06
2023-01-13T07:54:39.074Z,16.61
2023-01-13T07:57:08.358Z,14.98
2023-01-13T07:59:37.053Z,16.29
2023-01-13T08:02:05.545Z,17.01
2023-01-13T08:04:35.073Z,17.42
2023-01-13T08:07:03.428Z,15.65
2023-01-13T08:09:33.340Z,16.27
2023-01-13T08:12:15.464Z,15.13
2023-01-13T08:14:43.989Z,15.13
2023-01-13T08:17:12.495Z,14.75
2023-01-13T08:19:40.864Z,15.86
2023-01-13T08:22:09.128Z,15.65
2023-01-13T08:24:38.771Z,16.64
2023-01-13T08:27:07.109Z,17.09
2023-01-13T08:29:35.446Z,17.35
2023-01-13T08:32:03.751Z,17.06
2023-01-13T08:34:32.063Z,16.05
2023-01-13T08:37:00.399Z,16.43
2023-01-13T08:39:28.927Z,16.54
2023-01-13T08:41:58.946Z,16.36
2023-01-13T08:44:28.759Z,17.81
2023-01-13T08:46:57.884Z,16.79
2023-01-13T08:49:26.793Z,17.77
2023-01-13T08:51:55.425Z,17.98
2023-01-13T08:54:23.776Z,17.65
2023-01-13T08:56:52.177Z,18.33
2023-01-13T08:59:22.301Z,19.11
2023-01-13T09:01:50.871Z,19.81
2023-01-13T09:04:23.743Z,21.70
2023-01-13T09:06:53.226Z,21.20
2023-01-13T09:09:21.825Z,20.46
2023-01-13T09:12:09.346Z,21.40
2023-01-13T09:14:40.595Z,22.28
2023-01-13T09:17:09.111Z,20.85
2023-01-13T09:19:38.034Z,22.01
2023-01-13T09:22:06.392Z,22.14
2023-01-13T09:24:34.748Z,22.27
2023-01-13T09:27:03.080Z,21.94
2023-01-13T09:29:31.533Z,21.75
2023-01-13T09:32:01.352Z,22.21
2023-01-13T09:34:47.054Z,22.95
2023-01-13T09:37:15.488Z,23.55
2023-01-13T09:39:43.777Z,23.20
2023-01-13T09:42:37.505Z,22.89
2023-01-13T09:45:09.184Z,23.21
2023-01-13T09:47:43.679Z,22.33
2023-01-13T09:50:23.563Z,23.26
2023-01-13T09:52:52.307Z,22.32
2023-01-13T09:55:26.633Z,22.88
2023-01-13T09:57:55.010Z,22.21
2023-01-13T10:00:25.351Z,22.05
2023-01-13T10:03:10.639Z,22.42
2023-01-13T10:05:42.495Z,21.84
2023-01-13T10:08:14.743Z,22.40
2023-01-13T10:10:47.390Z,22.34
2023-01-13T10:13:21.400Z,22.41
2023-01-13T10:16:03.025Z,21.87
2023-01-13T10:18:44.490Z,21.80
2023-01-13T10:21:27.213Z,22.28
2023-01-13T10:24:03.733Z,21.51
2023-01-13T10:26:48.329Z,22.22
2023-01-13T10:29:25.493Z,23.05
2023-01-13T10:31:54.600Z,21.42
2023-01-13T10:34:25.519Z,22.12
2023-01-13T10:37:06.616Z,22.60
2023-01-13T10:39:42.637Z,22.88
2023-01-13T10:42:15.955Z,21.77
2023-01-13T10:44:52.361Z,22.49
2023-01-13T10:47:28.820Z,22.95
2023-01-13T10:50:26.231Z,21.81
2023-01-13T10:53:00.805Z,21.24
2023-01-13T10:55:32.172Z,20.06
2023-01-13T10:58:13.848Z,20.71
2023-01-13T11:00:42.486Z,21.98
2023-01-13T11:03:17.568Z,21.09
2023-01-13T11:05:55.411Z,20.99
2023-01-13T11:08:26.260Z,21.09
2023-01-13T11:10:57.667Z,19.91
2023-01-13T11:13:33.589Z,21.84
2023-01-13T11:16:06.927Z,22.28
2023-01-13T11:18:52.138Z,21.42
2023-01-13T11:21:25.993Z,21.69
2023-01-13T11:24:06.789Z,21.29
2023-01-13T11:26:45.059Z,22.45
2023-01-13T11:29:19.269Z,23.83
2023-01-13T11:31:52.729Z,24.16
2023-01-13T11:34:29.924Z,24.29
2023-01-13T11:37:02.012Z,23.88
2023-01-13T11:39:42.630Z,24.61
2023-01-13T11:42:24.685Z,24.30
2023-01-13T11:45:03.163Z,24.35
2023-01-13T11:47:33.130Z,25.43
2023-01-13T11:50:02.184Z,26.29
2023-01-13T11:52:49.222Z,24.37
2023-01-13T11:55:32.486Z,24.05
2023-01-13T11:58:29.061Z,22.95
2023-01-13T12:01:10.997Z,21.94
2023-01-13T12:03:44.261Z,21.62
2023-01-13T12:06:28.579Z,21.10
2023-01-13T12:09:26.414Z,21.04
2023-01-13T12:12:27.653Z,21.21
2023-01-13T12:15:29.452Z,19.72
2023-01-13T12:18:20.207Z,19.60
2023-01-13T12:21:01.605Z,20.36
2023-01-13T12:23:35.812Z,20.57
2023-01-13T12:26:11.739Z,20.70
2023-01-13T12:28:46.561Z,20.54
2023-01-13T12:31:17.111Z,20.16
2023-01-13T12:33:56.656Z,18.76
2023-01-13T12:36:32.530Z,19.26
2023-01-13T12:39:10.567Z,18.94
2023-01-13T12:41:59.218Z,18.72
2023-01-13T12:44:27.610Z,19.07
2023-01-13T12:46:57.258Z,18.54
2023-01-13T12:49:28.319Z,18.88
2023-01-13T12:52:19.956Z,17.46
2023-01-13T12:55:19.428Z,16.59
2023-01-13T12:58:01.233Z,16.57
2023-01-13T13:00:38.336Z,17.08
2023-01-13T13:03:37.562Z,17.76
2023-01-13T13:06:11.797Z,17.22
2023-01-13T13:08:54.629Z,17.15
2023-01-13T13:11:53.226Z,17.18
2023-01-13T13:15:04.510Z,16.86
2023-01-13T13:18:01.745Z,16.37
2023-01-13T13:20:56.424Z,16.55
2023-01-13T13:23:44.375Z,16.41
2023-01-13T13:26:25.100Z,16.87
2023-01-13T13:29:28.572Z,16.77
2023-01-13T13:32:15.997Z,16.01
2023-01-13T13:34:53.866Z,16.30
2023-01-13T13:38:05.319Z,16.10
2023-01-13T13:41:02.362Z,15.68
2023-01-13T13:43:56.428Z,15.50
2023-01-13T13:46:44.530Z,15.88
2023-01-13T13:49:13.403Z,16.01
2023-01-13T13:51:49.470Z,15.96
2023-01-13T13:54:21.248Z,15.41
2023-01-13T13:56:51.552Z,15.34
2023-01-13T13:59:22.796Z,15.27
2023-01-13T14:02:01.298Z,15.44
2023-01-13T14:04:31.855Z,15.44
2023-01-13T14:07:04.616Z,15.38
2023-01-13T14:09:42.893Z,15.20
2023-01-13T14:12:19.260Z,14.96
2023-01-13T14:14:49.249Z,14.78
2023-01-13T14:17:23.599Z,14.90
2023-01-13T14:19:58.241Z,15.04
2023-01-13T14:22:27.990Z,14.59
2023-01-13T14:24:57.884Z,14.67
2023-01-13T14:27:28.521Z,14.52
2023-01-13T14:29:59.443Z,14.53
2023-01-13T14:32:33.730Z,14.86
2023-01-13T14:35:02.145Z,14.94
2023-01-13T14:37:36.344Z,14.91
2023-01-13T14:40:05.127Z,14.56
2023-01-13T14:42:35.602Z,14.23
2023-01-13T14:45:04.514Z,13.72
2023-01-13T14:47:34.970Z,14.02
2023-01-13T14:50:07.719Z,14.07
2023-01-13T14:52:47.774Z,13.75
2023-01-13T14:55:26.387Z,13.58
2023-01-13T14:57:55.058Z,13.62
2023-01-13T15:00:26.324Z,13.90
2023-01-13T15:03:08.628Z,13.56
2023-01-13T15:05:42.680Z,13.78
2023-01-13T15:08:38.356Z,13.52
2023-01-13T15:11:08.945Z,13.76
2023-01-13T15:13:50.441Z,13.84
2023-01-13T15:16:25.124Z,13.75
2023-01-13T15:18:54.465Z,13.93
2023-01-13T15:21:23.483Z,13.87
2023-01-13T15:23:53.299Z,13.86
2023-01-13T15:26:24.456Z,13.52
2023-01-13T15:28:53.720Z,13.45
2023-01-13T15:31:22.639Z,13.64
2023-01-13T15:33:52.706Z,13.35
2023-01-13T15:36:27.157Z,13.28
2023-01-13T15:38:57.677Z,12.89
2023-01-13T15:41:43.970Z,13.21
2023-01-13T15:44:30.902Z,13.45
2023-01-13T15:47:02.679Z,13.13
2023-01-13T15:49:36.940Z,13.05
2023-01-13T15:52:07.850Z,13.07
2023-01-13T15:54:37.528Z,13.18
2023-01-13T15:57:05.918Z,13.29
2023-01-13T15:59:34.334Z,13.21
2023-01-13T16:02:02.653Z,13.26
2023-01-13T16:04:30.992Z,13.31
2023-01-13T16:06:59.376Z,12.58
2023-01-13T16:09:27.644Z,12.93
2023-01-13T16:11:57.447Z,12.88
2023-01-13T16:14:25.801Z,12.92
2023-01-13T16:16:54.172Z,12.44
2023-01-13T16:19:22.544Z,12.40
2023-01-13T16:21:51.039Z,12.43
2023-01-13T16:24:19.388Z,12.68
2023-01-13T16:26:47.797Z,12.77
2023-01-13T16:29:17.476Z,12.56
2023-01-13T16:31:45.778Z,12.42
2023-01-13T16:34:14.073Z,11.88
2023-01-13T16:36:43.901Z,11.64
2023-01-13T16:39:22.265Z,12.11
2023-01-13T16:41:50.661Z,11.93
2023-01-13T16:44:20.601Z,11.85
2023-01-13T16:46:48.838Z,11.99
2023-01-13T16:49:18.586Z,12.05
2023-01-13T16:51:46.943Z,11.64
2023-01-13T16:54:16.625Z,11.58
2023-01-13T16:56:45.365Z,11.22
2023-01-13T16:59:17.152Z,11.67
2023-01-13T17:01:46.905Z,11.94
2023-01-13T17:04:17.810Z,12.08
2023-01-13T17:06:53.311Z,11.97
2023-01-13T17:09:24.204Z,12.08
2023-01-13T17:11:52.959Z,12.05
2023-01-13T17:14:23.631Z,12.17
2023-01-13T17:16:55.212Z,11.87
2023-01-13T17:19:24.672Z,11.94
2023-01-13T17:21:53.132Z,11.99
2023-01-13T17:24:21.596Z,11.79
2023-01-13T17:26:51.819Z,11.68
2023-01-13T17:29:22.339Z,11.93
2023-01-13T17:31:54.718Z,11.41
2023-01-13T17:34:23.199Z,11.37
2023-01-13T17:36:51.513Z,11.19
2023-01-13T17:39:22.324Z,10.94
2023-01-13T17:41:51.342Z,10.80
2023-01-13T17:44:21.947Z,10.50
2023-01-13T17:46:50.562Z,10.35
2023-01-13T17:49:22.039Z,10.52
2023-01-13T17:51:51.592Z,10.25
2023-01-13T17:54:20.353Z,10.95
2023-01-13T17:56:48.887Z,11.03
2023-01-13T17:59:19.395Z,10.47
2023-01-13T18:01:47.870Z,10.62
2023-01-13T18:04:17.681Z,10.52
2023-01-13T18:06:48.048Z,10.28
2023-01-13T18:09:16.566Z,10.33
2023-01-13T18:11:47.070Z,10.70
2023-01-13T18:14:15.910Z,10.59
2023-01-13T18:16:44.872Z,10.93
2023-01-13T18:19:30.615Z,11.14
2023-01-13T18:22:17.533Z,11.27
2023-01-13T18:25:03.041Z,11.20
2023-01-13T18:27:33.859Z,11.23
2023-01-13T18:30:03.675Z,11.26
2023-01-13T18:32:33.727Z,10.78
2023-01-13T18:35:06.755Z,11.21
2023-01-13T18:37:38.899Z,11.38
2023-01-13T18:40:09.456Z,11.01
2023-01-13T18:42:51.970Z,10.60
2023-01-13T18:45:20.618Z,10.69
2023-01-13T18:47:48.884Z,10.99
2023-01-13T18:50:18.230Z,11.17
2023-01-13T18:52:48.073Z,10.57
2023-01-13T18:55:16.740Z,11.19
2023-01-13T18:57:45.291Z,11.01
2023-01-13T19:00:16.276Z,11.19
2023-01-13T19:02:45.225Z,11.19
2023-01-13T19:05:13.901Z,11.13
2023-01-13T19:07:43.507Z,11.12
2023-01-13T19:10:14.472Z,10.80
2023-01-13T19:12:43.857Z,11.04
2023-01-13T19:15:12.832Z,10.97
2023-01-13T19:17:41.290Z,10.75
2023-01-13T19:20:11.546Z,10.92
2023-01-13T19:22:39.897Z,10.88
2023-01-13T19:25:08.682Z,10.90
2023-01-13T19:27:39.841Z,10.83
2023-01-13T19:30:09.755Z,10.29
2023-01-13T19:32:38.116Z,10.54
2023-01-13T19:35:07.417Z,10.61
2023-01-13T19:37:37.138Z,10.30
2023-01-13T19:40:09.445Z,10.47
2023-01-13T19:42:56.478Z,10.10
2023-01-13T19:45:27.475Z,10.48
2023-01-13T19:47:56.277Z,10.58
2023-01-13T19:50:25.043Z,10.43
2023-01-13T19:52:53.339Z,10.44
2023-01-13T19:55:22.376Z,10.48
2023-01-13T19:57:52.120Z,10.45
2023-01-13T20:00:22.051Z,10.27
2023-01-13T20:02:52.094Z,10.25
2023-01-13T20:05:22.846Z,10.31
2023-01-13T20:07:51.783Z,10.27
2023-01-13T20:10:21.930Z,10.41
2023-01-13T20:12:51.979Z,10.57
2023-01-13T20:15:20.227Z,10.69
2023-01-13T20:17:48.912Z,10.54
2023-01-13T20:20:18.764Z,10.47
2023-01-13T20:22:47.155Z,10.46
2023-01-13T20:25:17.570Z,10.49
2023-01-13T20:27:46.470Z,10.49
2023-01-13T20:30:16.823Z,10.43
2023-01-13T20:32:45.376Z,10.49
2023-01-13T20:35:14.032Z,10.39
2023-01-13T20:37:43.821Z,10.03
2023-01-13T20:40:16.373Z,9.97
2023-01-13T20:42:45.324Z,9.94
2023-01-13T20:45:20.918Z,10.17
2023-01-13T20:47:49.349Z,10.06
2023-01-13T20:50:17.981Z,10.42
2023-01-13T20:52:46.682Z,10.49
2023-01-13T20:55:15.318Z,10.53
2023-01-13T20:57:43.787Z,10.24
2023-01-13T21:00:16.887Z,10.37
2023-01-13T21:02:45.189Z,10.51
2023-01-13T21:05:13.707Z,10.57
2023-01-13T21:07:41.996Z,10.59
2023-01-13T21:10:11.887Z,10.60
2023-01-13T21:12:57.474Z,10.59
2023-01-13T21:15:27.907Z,10.56
2023-01-13T21:18:13.745Z,10.58
2023-01-13T21:20:42.251Z,10.35
2023-01-13T21:23:12.048Z,10.61
2023-01-13T21:25:40.665Z,10.61
2023-01-13T21:28:11.715Z,10.19
2023-01-13T21:30:42.167Z,10.55
2023-01-13T21:33:14.892Z,10.32
2023-01-13T21:35:43.357Z,10.27
2023-01-13T21:38:12.748Z,10.14
2023-01-13T21:40:41.211Z,9.75
2023-01-13T21:43:30.992Z,5.42
2023-01-13T21:46:18.235Z,10.22
2023-01-13T21:48:46.765Z,9.25
2023-01-13T21:51:15.297Z,7.85
2023-01-13T21:53:43.673Z,10.54
2023-01-13T21:56:12.178Z,10.28
2023-01-13T21:58:40.480Z,10.45
2023-01-13T22:01:11.977Z,10.46
2023-01-13T22:03:54.730Z,10.38
2023-01-13T22:06:23.361Z,10.10
2023-01-13T22:08:51.741Z,9.58
2023-01-13T22:11:20.035Z,9.88
2023-01-13T22:14:05.575Z,9.66
2023-01-13T22:16:37.983Z,9.35
2023-01-13T22:19:07.805Z,8.98
2023-01-13T22:21:36.784Z,8.86
2023-01-13T22:24:05.323Z,8.91
2023-01-13T22:26:33.609Z,8.64
2023-01-13T22:29:02.381Z,7.79
2023-01-13T22:31:31.997Z,7.60
2023-01-13T22:34:01.734Z,7.68
2023-01-13T22:36:29.985Z,7.97
2023-01-13T22:39:00.570Z,8.29
2023-01-13T22:41:29.070Z,8.50
2023-01-13T22:43:57.559Z,8.73
2023-01-13T22:46:25.939Z,8.87
2023-01-13T22:48:56.003Z,9.02
2023-01-13T22:51:26.762Z,8.87
2023-01-13T22:53:55.637Z,8.90
2023-01-13T22:59:13.337Z,9.10
2023-01-13T23:01:42.272Z,9.06
2023-01-13T23:04:13.027Z,9.02
2023-01-13T23:06:42.851Z,9.18
2023-01-13T23:09:11.538Z,8.99
2023-01-13T23:11:40.789Z,9.07
2023-01-13T23:14:10.460Z,9.02
2023-01-13T23:16:40.822Z,9.09
2023-01-13T23:19:09.642Z,8.97
2023-01-13T23:21:39.088Z,9.30
2023-01-13T23:24:09.281Z,9.15
2023-01-13T23:26:38.030Z,8.94
2023-01-13T23:29:09.194Z,9.35
2023-01-13T23:31:37.624Z,9.13
2023-01-13T23:34:05.912Z,9.59
2023-01-13T23:36:37.146Z,9.35
2023-01-13T23:39:05.589Z,9.36
2023-01-13T23:41:35.308Z,8.87
2023-01-13T23:44:03.593Z,9.09
2023-01-13T23:46:34.120Z,9.28
2023-01-13T23:49:03.654Z,9.34
2023-01-13T23:51:32.273Z,9.24
2023-01-13T23:54:01.107Z,9.31
2023-01-13T23:56:31.565Z,9.29
2023-01-13T23:59:01.391Z,9.02
